Time;durP1;ratioP1;P1;durP2;ratioP2;P2;SDS_P1;SDS_P2;PMS_P1;PMS_P2;Temp;Humidity;BMP_temperature;BMP_pressure;BME280_temperature;BME280_humidity;BME280_pressure;Samples;Min_cycle;Max_cycle;Signal;HPM_P1;HPM_P2
2023/06/23 00:01:03;;;;;;;9.18;7.82;;;;;;;19.29;100.00;65009.09;5094120;28;20207;-58
2023/06/23 00:03:30;;;;;;;10.00;9.00;;;;;;;19.20;100.00;64998.59;5093838;28;20220;-58
2023/06/23 00:05:56;;;;;;;12.80;8.73;;;;;;;19.16;100.00;64991.63;5093942;28;20198;-56
2023/06/23 00:08:22;;;;;;;12.85;9.85;;;;;;;19.09;100.00;64981.91;5093830;28;20593;-58
2023/06/23 00:10:48;;;;;;;10.27;9.05;;;;;;;19.00;100.00;64973.97;5093804;28;20285;-57
2023/06/23 00:13:13;;;;;;;12.02;9.07;;;;;;;19.01;100.00;64975.63;5093514;28;20700;-57
2023/06/23 00:15:39;;;;;;;9.90;8.80;;;;;;;18.92;100.00;64967.69;5093706;28;20164;-58
2023/06/23 00:18:05;;;;;;;9.30;8.40;;;;;;;18.83;100.00;64958.31;5093707;28;20585;-57
2023/06/23 00:20:31;;;;;;;10.35;9.10;;;;;;;18.78;100.00;64952.81;5093935;28;20652;-56
2023/06/23 00:22:56;;;;;;;13.55;9.50;;;;;;;18.73;100.00;64944.16;5093468;28;20799;-58
2023/06/23 00:25:23;;;;;;;12.25;8.70;;;;;;;18.77;100.00;64949.13;5093467;28;20222;-57
2023/06/23 00:27:48;;;;;;;10.40;8.93;;;;;;;18.82;100.00;64957.22;5093577;28;20192;-57
2023/06/23 00:30:14;;;;;;;12.23;9.43;;;;;;;18.65;100.00;64935.34;5093535;28;20291;-56
2023/06/23 00:32:40;;;;;;;11.63;8.77;;;;;;;18.84;100.00;64959.44;5091972;28;20196;-59
2023/06/23 00:35:08;;;;;;;10.93;9.00;;;;;;;18.75;100.00;64943.81;5093475;28;20420;-56
2023/06/23 00:37:37;;;;;;;10.25;9.18;;;;;;;18.65;100.00;64935.34;5093414;28;20209;-58
2023/06/23 00:40:03;;;;;;;13.00;9.18;;;;;;;18.65;100.00;64935.34;5093227;28;20212;-56
2023/06/23 00:42:29;;;;;;;12.43;9.18;;;;;;;18.63;100.00;64933.13;5093150;28;20192;-57
2023/06/23 00:44:54;;;;;;;12.05;9.50;;;;;;;18.66;100.00;64937.00;5093710;28;20265;-58
2023/06/23 00:47:20;;;;;;;10.35;9.15;;;;;;;18.69;100.00;64940.31;5093194;28;20252;-58
2023/06/23 00:49:46;;;;;;;12.23;9.75;;;;;;;18.72;100.00;64943.63;5092533;28;20207;-58
2023/06/23 00:52:11;;;;;;;11.80;9.48;;;;;;;18.70;100.00;64943.44;5093182;28;20204;-57
2023/06/23 00:54:37;;;;;;;10.55;9.07;;;;;;;18.73;100.00;64944.16;5093088;28;20215;-57
2023/06/23 00:57:03;;;;;;;11.60;9.10;;;;;;;18.71;100.00;64939.41;5093132;28;20206;-57
2023/06/23 00:59:29;;;;;;;11.73;9.57;;;;;;;18.83;100.00;64955.75;5092686;28;20216;-58
2023/06/23 01:01:58;;;;;;;11.43;8.82;;;;;;;18.84;100.00;64953.75;5092980;28;20704;-58
2023/06/23 01:04:24;;;;;;;10.85;8.63;;;;;;;18.84;100.00;64956.31;5093223;28;20212;-58
2023/06/23 01:07:12;;;;;;;12.48;8.32;;;;;;;18.67;100.00;64935.56;5093007;28;20204;-58
2023/06/23 01:10:16;;;;;;;11.85;9.18;;;;;;;18.98;100.00;64974.31;5093087;28;20306;-57
2023/06/23 01:12:53;;;;;;;11.57;9.10;;;;;;;19.02;100.00;64976.75;5092898;28;20252;-57
2023/06/23 01:15:31;;;;;;;13.90;8.73;;;;;;;18.96;100.00;64967.00;5092898;28;20284;-57
2023/06/23 01:18:23;;;;;;;10.60;8.98;;;;;;;18.83;100.00;64958.31;5092672;28;20200;-57
2023/06/23 01:20:51;;;;;;;10.50;9.27;;;;;;;18.92;100.00;64962.59;5092678;28;20281;-57
2023/06/23 01:23:20;;;;;;;11.23;9.60;;;;;;;18.96;100.00;64967.56;5092723;28;20265;-57
2023/06/23 01:25:54;;;;;;;13.00;9.63;;;;;;;18.97;100.00;64968.09;5092579;28;20708;-59
2023/06/23 01:28:41;;;;;;;10.60;8.55;;;;;;;18.96;100.00;64967.56;5092771;28;20228;-58
2023/06/23 01:31:13;;;;;;;13.48;9.02;;;;;;;18.90;100.00;64965.50;5092469;28;20196;-59
2023/06/23 01:33:44;;;;;;;15.10;9.20;;;;;;;18.80;100.00;64955.00;5092345;28;20298;-56
2023/06/23 01:36:14;;;;;;;13.20;9.30;;;;;;;18.73;100.00;64944.16;5092446;28;20257;-56
2023/06/23 01:38:55;;;;;;;13.85;10.18;;;;;;;18.85;100.00;64957.41;5092518;28;20303;-58
2023/06/23 01:41:26;;;;;;;12.38;9.25;;;;;;;18.86;100.00;64956.53;5074298;28;20556;-58
2023/06/23 01:43:55;;;;;;;13.27;9.73;;;;;;;18.78;100.00;64950.25;5092359;28;20231;-57
2023/06/23 01:46:34;;;;;;;19.35;10.40;;;;;;;18.67;100.00;64937.56;5092406;28;20207;-58
2023/06/23 01:49:04;;;;;;;14.30;10.95;;;;;;;18.79;100.00;64951.34;5073925;28;20214;-58
2023/06/23 01:51:31;;;;;;;11.65;10.18;;;;;;;18.76;100.00;64944.94;5074083;28;20207;-56
2023/06/23 01:53:58;;;;;;;14.82;10.48;;;;;;;18.78;100.00;64949.69;5092343;28;20293;-57
2023/06/23 01:56:25;;;;;;;15.80;11.90;;;;;;;18.70;100.00;64938.31;5092128;28;20200;-57
2023/06/23 01:58:52;;;;;;;12.35;10.30;;;;;;;18.67;100.00;64935.00;5092135;28;20273;-59
2023/06/23 02:01:19;;;;;;;13.93;11.18;;;;;;;18.62;100.00;64930.03;5073797;28;20214;-58
2023/06/23 02:03:48;;;;;;;16.35;10.57;;;;;;;18.62;100.00;64932.03;5092014;28;20284;-57
2023/06/23 02:06:14;;;;;;;12.63;9.98;;;;;;;18.64;100.00;64934.81;5092227;28;20223;-57
2023/06/23 02:08:41;;;;;;;12.57;10.75;;;;;;;18.63;100.00;64935.69;5091870;28;20215;-57
2023/06/23 02:11:08;;;;;;;12.90;11.00;;;;;;;18.56;100.00;64925.44;5091271;28;20196;-57
2023/06/23 02:13:35;;;;;;;13.32;10.35;;;;;;;18.50;100.00;64918.81;5073784;28;20223;-57
2023/06/23 02:16:02;;;;;;;14.45;11.38;;;;;;;18.47;100.00;64915.50;5091960;28;20203;-57
2023/06/23 02:18:28;;;;;;;15.77;12.00;;;;;;;18.54;100.00;64920.66;5057347;28;20248;-57
2023/06/23 02:20:55;;;;;;;13.70;10.85;;;;;;;18.47;100.00;64916.03;5091763;28;20196;-58
2023/06/23 02:23:23;;;;;;;12.50;10.15;;;;;;;18.33;100.00;64903.13;5091723;28;20234;-58
2023/06/23 02:25:50;;;;;;;12.80;10.65;;;;;;;18.42;100.00;64908.50;5091474;28;20195;-57
2023/06/23 02:28:16;;;;;;;15.38;10.38;;;;;;;18.24;100.00;64891.19;5091425;28;20208;-58
2023/06/23 02:30:43;;;;;;;12.55;10.60;;;;;;;18.23;100.00;64890.13;5091716;28;20172;-57
2023/06/23 02:33:09;;;;;;;15.02;10.75;;;;;;;18.31;100.00;64898.38;5091643;28;20221;-58
2023/06/23 02:35:35;;;;;;;13.88;10.07;;;;;;;18.28;100.00;64895.63;5091755;28;20579;-57
2023/06/23 02:38:04;;;;;;;11.05;9.25;;;;;;;18.27;100.00;64894.53;5091251;28;20208;-58
2023/06/23 02:40:33;;;;;;;11.70;9.43;;;;;;;18.34;100.00;64902.22;5091359;28;20564;-58
2023/06/23 02:43:01;;;;;;;12.80;9.52;;;;;;;18.27;100.00;64894.53;5091363;28;20196;-57
2023/06/23 02:45:30;;;;;;;14.07;10.32;;;;;;;18.28;100.00;64895.09;5073189;28;20220;-57
2023/06/23 02:47:57;;;;;;;10.98;9.77;;;;;;;18.20;100.00;64888.81;5091244;28;20248;-57
2023/06/23 02:50:28;;;;;;;11.77;9.55;;;;;;;18.26;100.00;64892.88;5091359;28;20251;-58
2023/06/23 02:53:06;;;;;;;12.13;10.15;;;;;;;18.19;100.00;64885.69;5091200;28;20196;-58
2023/06/23 02:55:40;;;;;;;12.40;10.15;;;;;;;18.24;100.00;64893.75;5091302;28;20663;-58
2023/06/23 02:58:11;;;;;;;11.95;10.57;;;;;;;18.20;100.00;64889.34;5091178;28;20313;-57
2023/06/23 03:00:37;;;;;;;13.27;10.55;;;;;;;18.11;100.00;64874.31;5091279;28;20212;-56
2023/06/23 03:03:07;;;;;;;12.43;9.90;;;;;;;18.16;100.00;64882.38;5091178;28;20208;-57
2023/06/23 03:05:32;;;;;;;13.98;10.32;;;;;;;17.92;100.00;64857.91;5090917;28;20215;-58
2023/06/23 03:08:00;;;;;;;12.05;10.27;;;;;;;18.10;100.00;64877.78;5091087;28;20581;-58
2023/06/23 03:10:27;;;;;;;12.80;11.15;;;;;;;18.07;100.00;64869.91;5091085;28;20203;-57
2023/06/23 03:12:53;;;;;;;12.27;9.77;;;;;;;18.10;100.00;64875.22;5091064;28;20242;-58
2023/06/23 03:15:18;;;;;;;13.27;10.13;;;;;;;18.05;100.00;64870.25;5090972;28;20224;-58
2023/06/23 03:17:46;;;;;;;14.65;10.65;;;;;;;18.21;100.00;64887.91;5090741;28;20206;-57
2023/06/23 03:20:22;;;;;;;12.93;10.40;;;;;;;18.18;100.00;64884.06;5090827;28;20748;-57
2023/06/23 03:22:54;;;;;;;12.85;10.75;;;;;;;18.14;100.00;64880.19;5090647;28;20686;-58
2023/06/23 03:25:26;;;;;;;14.10;11.45;;;;;;;18.14;100.00;64877.09;5090719;28;20694;-60
2023/06/23 03:27:55;;;;;;;17.95;13.45;;;;;;;18.09;100.00;64877.22;5090933;28;20211;-61
2023/06/23 03:30:36;;;;;;;19.33;12.45;;;;;;;18.17;100.00;64882.94;5090763;28;20203;-58
2023/06/23 03:33:13;;;;;;;13.07;10.93;;;;;;;18.25;100.00;64891.75;5090498;28;20211;-57
2023/06/23 03:35:42;;;;;;;12.40;10.73;;;;;;;18.35;100.00;64900.78;5090671;28;20708;-58
2023/06/23 03:38:11;;;;;;;12.43;10.88;;;;;;;18.35;100.00;64905.91;5090608;28;20192;-58
2023/06/23 03:40:42;;;;;;;17.42;10.43;;;;;;;18.28;100.00;64893.06;5090458;28;20204;-57
2023/06/23 03:43:15;;;;;;;13.10;10.13;;;;;;;18.21;100.00;64887.91;5090556;28;20200;-58
2023/06/23 03:45:44;;;;;;;14.60;10.77;;;;;;;18.26;100.00;64892.88;5090483;28;20219;-57
2023/06/23 03:48:13;;;;;;;15.45;10.60;;;;;;;18.19;100.00;64885.69;5072330;28;20211;-58
2023/06/23 03:50:41;;;;;;;15.48;11.80;;;;;;;18.30;100.00;64894.72;5090285;28;20195;-57
2023/06/23 03:53:07;;;;;;;13.77;11.27;;;;;;;18.14;100.00;64882.72;5090075;28;20727;-58
2023/06/23 03:55:34;;;;;;;13.45;10.75;;;;;;;18.22;100.00;64889.00;5090211;28;20200;-57
2023/06/23 03:58:04;;;;;;;14.13;11.95;;;;;;;18.30;100.00;64900.38;5072109;28;20200;-57
2023/06/23 04:00:33;;;;;;;14.30;11.98;;;;;;;18.31;100.00;64896.38;5090416;28;20196;-57
2023/06/23 04:03:00;;;;;;;16.33;11.45;;;;;;;18.44;100.00;64910.72;5090138;28;20216;-57
2023/06/23 04:05:30;;;;;;;15.88;12.70;;;;;;;18.61;100.00;64928.94;5090419;28;20243;-58
2023/06/23 04:07:59;;;;;;;15.15;10.93;;;;;;;18.52;100.00;64921.00;5090254;28;20705;-59
2023/06/23 04:10:25;;;;;;;13.90;11.57;;;;;;;18.56;100.00;64925.44;5090301;28;20556;-56
2023/06/23 04:12:52;;;;;;;12.68;11.35;;;;;;;18.67;100.00;64938.09;5090311;28;20199;-58
2023/06/23 04:15:21;;;;;;;15.25;10.88;;;;;;;18.71;100.00;64942.53;5090188;28;20215;-55
2023/06/23 04:17:48;;;;;;;17.77;11.80;;;;;;;18.76;100.00;64948.03;5090155;28;20333;-55
2023/06/23 04:20:14;;;;;;;20.02;11.48;;;;;;;18.81;100.00;64953.00;5090123;28;20302;-55
2023/06/23 04:22:44;;;;;;;14.50;11.23;;;;;;;18.87;100.00;64962.16;5090184;28;20215;-59
2023/06/23 04:25:11;;;;;;;13.77;10.93;;;;;;;18.97;100.00;64970.66;5089886;28;20230;-57
2023/06/23 04:27:38;;;;;;;21.80;17.63;;;;;;;19.35;100.00;65012.63;5090029;28;20220;-56
2023/06/23 04:30:07;;;;;;;25.88;20.38;;;;;;;19.55;100.00;65032.16;5090537;28;20286;-57
2023/06/23 04:32:36;;;;;;;16.65;11.73;;;;;;;19.78;100.00;65057.00;5072389;28;20295;-57
2023/06/23 04:35:02;;;;;;;19.00;13.10;;;;;;;20.19;100.00;65101.72;5092237;28;20220;-56
2023/06/23 04:37:48;;;;;;;14.57;11.90;;;;;;;20.18;100.00;65101.16;5093414;28;20614;-55
2023/06/23 04:40:25;;;;;;;15.23;12.10;;;;;;;20.40;100.00;65128.06;5093409;28;20216;-55
2023/06/23 04:43:02;;;;;;;17.48;11.98;;;;;;;20.23;100.00;65109.28;5093268;28;20211;-55
2023/06/23 04:45:30;;;;;;;16.88;11.98;;;;;;;20.44;100.00;65131.94;5093252;28;20257;-56
2023/06/23 04:48:03;;;;;;;18.92;12.52;;;;;;;20.14;100.00;65099.31;5093101;28;20223;-57
2023/06/23 04:50:32;;;;;;;12.38;11.10;;;;;;;20.14;100.00;65099.31;5093257;28;20254;-57
2023/06/23 04:53:05;;;;;;;14.63;12.63;;;;;;;20.20;100.00;65103.41;5093127;28;20192;-58
2023/06/23 04:55:32;;;;;;;13.63;11.60;;;;;;;20.30;100.00;65113.91;5093111;28;20219;-59
2023/06/23 04:57:59;;;;;;;16.05;11.77;;;;;;;20.27;100.00;65111.16;5093164;28;20332;-59
2023/06/23 05:00:26;;;;;;;15.13;12.68;;;;;;;20.13;100.00;65098.22;5093209;28;20283;-57
2023/06/23 05:02:55;;;;;;;22.35;12.90;;;;;;;20.04;100.00;65091.38;5092908;28;20196;-55
2023/06/23 05:05:25;;;;;;;17.67;13.15;;;;;;;19.91;100.00;65071.91;5093030;28;20220;-61
2023/06/23 05:07:53;;;;;;;15.48;11.75;;;;;;;20.21;100.00;65106.50;5092891;28;20283;-58
2023/06/23 05:10:20;;;;;;;15.30;13.48;;;;;;;20.53;100.00;65139.88;5092860;28;20257;-57
2023/06/23 05:12:49;;;;;;;17.15;14.07;;;;;;;20.49;100.00;65137.44;5093131;28;20211;-58
2023/06/23 05:15:17;;;;;;;24.55;17.65;;;;;;;20.40;100.00;65125.50;5092785;28;20200;-58
2023/06/23 05:17:44;;;;;;;16.52;11.95;;;;;;;20.54;100.00;65143.53;5092833;28;20253;-59
2023/06/23 05:20:11;;;;;;;16.17;12.90;;;;;;;20.44;100.00;65129.38;5092879;28;20262;-58
2023/06/23 05:22:39;;;;;;;12.38;10.90;;;;;;;20.37;100.00;65121.63;5092746;28;20204;-59
2023/06/23 05:25:06;;;;;;;12.82;11.00;;;;;;;20.80;100.00;65169.72;5092361;28;20247;-59
2023/06/23 05:27:33;;;;;;;13.07;10.82;;;;;;;20.71;100.00;65159.22;5092612;28;20219;-60
2023/06/23 05:30:01;;;;;;;16.17;12.35;;;;;;;20.65;100.00;65153.13;5091628;28;20307;-60
2023/06/23 05:32:30;;;;;;;17.67;12.95;;;;;;;20.59;100.00;65149.06;5072863;28;20231;-59
2023/06/23 05:35:01;;;;;;;18.15;12.48;;;;;;;20.64;100.00;65154.03;5091261;28;20240;-60
2023/06/23 05:37:27;;;;;;;16.10;12.25;;;;;;;20.50;100.00;65138.56;5092396;28;20247;-59
2023/06/23 05:39:55;;;;;;;14.10;12.35;;;;;;;20.71;100.00;65159.22;5090988;28;20251;-60
2023/06/23 05:42:21;;;;;;;14.63;12.88;;;;;;;20.75;100.00;65163.63;5092439;28;20204;-61
2023/06/23 05:44:46;;;;;;;13.63;12.15;;;;;;;20.84;100.00;65176.16;5092280;28;20598;-59
2023/06/23 05:47:18;;;;;;;18.27;12.65;;;;;;;21.05;100.00;65196.81;5091255;28;20282;-59
2023/06/23 05:49:45;;;;;;;16.08;12.82;;;;;;;21.29;100.00;65225.91;5092111;28;20216;-61
2023/06/23 05:52:16;;;;;;;11.77;10.57;;;;;;;21.58;100.00;65254.88;5092210;28;20670;-59
2023/06/23 05:54:46;;;;;;;16.52;12.65;;;;;;;21.95;100.00;65295.28;5092257;28;20295;-60
2023/06/23 05:57:22;;;;;;;16.50;11.50;;;;;;;22.23;100.00;65326.81;5092138;28;20200;-57
2023/06/23 05:59:57;;;;;;;17.42;13.52;;;;;;;22.10;100.00;65315.00;5092615;28;20219;-58
2023/06/23 06:02:27;;;;;;;15.95;10.93;;;;;;;22.08;100.00;65312.25;5092277;28;20248;-58
2023/06/23 06:04:58;;;;;;;16.60;14.45;;;;;;;22.15;100.00;65317.97;5092139;28;20219;-59
2023/06/23 06:07:27;;;;;;;14.90;11.48;;;;;;;22.31;100.00;65337.69;5091673;28;20207;-59
2023/06/23 06:09:54;;;;;;;16.40;11.75;;;;;;;22.37;100.00;65341.75;5091673;28;20238;-57
2023/06/23 06:12:21;;;;;;;18.30;13.40;;;;;;;22.32;100.00;65333.66;5090608;28;20211;-59
2023/06/23 06:14:49;;;;;;;16.13;12.98;;;;;;;22.37;100.00;65341.75;5091839;28;20246;-59
2023/06/23 06:17:16;;;;;;;17.15;12.65;;;;;;;22.48;100.00;65357.06;5092031;28;20210;-58
2023/06/23 06:19:44;;;;;;;14.57;11.40;;;;;;;22.64;100.00;65371.13;5091350;28;20705;-59
2023/06/23 06:22:11;;;;;;;17.70;11.68;;;;;;;23.12;100.00;65424.84;5091758;28;20192;-59
2023/06/23 06:24:38;;;;;;;17.35;12.65;;;;;;;23.04;100.00;65415.44;5092310;28;20388;-59
2023/06/23 06:27:07;;;;;;;16.58;11.30;;;;;;;23.06;100.00;65417.63;5091703;28;20169;-58
2023/06/23 06:29:35;;;;;;;15.40;12.23;;;;;;;23.16;100.00;65426.16;5091491;28;20677;-58
2023/06/23 06:32:04;;;;;;;14.48;11.50;;;;;;;23.29;100.00;65443.13;5091681;28;20635;-58
2023/06/23 06:34:31;;;;;;;15.48;12.82;;;;;;;23.38;100.00;65453.09;5091460;28;20212;-58
2023/06/23 06:37:01;;;;;;;15.30;13.50;;;;;;;23.35;100.00;65450.34;5091631;28;20281;-56
2023/06/23 06:39:29;;;;;;;16.90;13.45;;;;;;;23.34;100.00;65446.09;5073299;28;20264;-56
2023/06/23 06:41:57;;;;;;;18.15;12.63;;;;;;;23.32;100.00;65449.59;5091724;28;20203;-55
2023/06/23 06:44:22;;;;;;;20.00;14.32;;;;;;;23.28;100.00;65442.56;5091669;28;20307;-56
2023/06/23 06:46:50;;;;;;;17.10;12.82;;;;;;;23.25;100.00;65441.81;5091616;28;20436;-57
2023/06/23 06:49:18;;;;;;;19.48;13.48;;;;;;;23.28;100.00;65442.56;5091886;28;20261;-59
2023/06/23 06:51:44;;;;;;;16.15;13.90;;;;;;;23.35;100.00;65452.38;5091932;28;20195;-59
2023/06/23 06:54:10;;;;;;;18.13;14.00;;;;;;;23.37;100.00;65452.00;5091127;28;20211;-60
2023/06/23 06:56:36;;;;;;;18.70;14.00;;;;;;;23.44;100.00;65459.19;5091157;28;20210;-55
2023/06/23 06:59:03;;;;;;;17.75;14.32;;;;;;;23.55;100.00;65469.38;5091108;28;20215;-55
2023/06/23 07:01:28;;;;;;;20.67;14.48;;;;;;;23.56;100.00;65472.50;5090999;28;20272;-56
2023/06/23 07:03:56;;;;;;;15.80;13.45;;;;;;;23.55;100.00;65471.41;5090813;28;20682;-57
2023/06/23 07:06:21;;;;;;;20.45;14.27;;;;;;;23.46;100.00;65461.97;5091200;28;20754;-60
2023/06/23 07:08:47;;;;;;;15.75;13.13;;;;;;;23.58;100.00;65474.72;5091317;28;20211;-59
2023/06/23 07:11:13;;;;;;;18.00;13.32;;;;;;;23.75;100.00;65493.56;5091013;28;20200;-58
2023/06/23 07:13:39;;;;;;;16.35;13.30;;;;;;;23.75;100.00;65491.53;5091374;28;20634;-55
2023/06/23 07:16:05;;;;;;;23.27;15.20;;;;;;;23.80;100.00;65499.09;5091173;28;20712;-56
2023/06/23 07:18:30;;;;;;;19.52;14.43;;;;;;;23.87;100.00;65506.88;5091064;28;20331;-58
2023/06/23 07:20:56;;;;;;;17.45;13.63;;;;;;;23.82;100.00;65501.31;5090831;28;20180;-55
2023/06/23 07:23:22;;;;;;;19.92;14.45;;;;;;;23.90;100.00;65508.16;5090830;28;20226;-56
2023/06/23 07:25:48;;;;;;;20.52;13.38;;;;;;;24.05;100.00;65529.41;5090747;28;20211;-58
2023/06/23 07:28:14;;;;;;;18.63;15.70;;;;;;;23.86;100.00;65506.31;5090936;28;20653;-56
2023/06/23 07:30:39;;;;;;;18.90;14.32;;;;;;;23.77;100.00;65493.19;5090914;28;20203;-56
2023/06/23 07:33:06;;;;;;;19.48;14.25;;;;;;;23.67;100.00;65485.25;5090877;28;20204;-60
2023/06/23 07:35:31;;;;;;;17.35;14.57;;;;;;;23.43;100.00;65456.09;5097906;22;20228;-60
2023/06/23 07:37:57;;;;;;;27.83;14.68;;;;;;;23.50;100.00;65465.84;5090632;28;20215;-61
2023/06/23 07:40:22;;;;;;;21.33;15.07;;;;;;;23.61;100.00;65475.47;5090682;28;20203;-60
2023/06/23 07:42:48;;;;;;;19.25;13.20;;;;;;;23.79;100.00;65498.56;5090804;28;20299;-56
2023/06/23 07:45:13;;;;;;;17.08;13.43;;;;;;;23.85;100.00;65502.06;5090502;28;20261;-59
2023/06/23 07:47:39;;;;;;;15.93;12.98;;;;;;;23.84;100.00;65504.09;5090659;28;20204;-62
2023/06/23 07:50:05;;;;;;;16.88;13.88;;;;;;;23.86;100.00;65506.31;5090454;28;20210;-59
2023/06/23 07:52:30;;;;;;;13.00;10.73;;;;;;;23.99;100.00;65515.00;5090770;28;20200;-61
2023/06/23 07:54:56;;;;;;;12.93;10.95;;;;;;;23.98;100.00;65521.63;5072474;28;20215;-59
2023/06/23 07:57:21;;;;;;;13.10;10.52;;;;;;;23.90;100.00;65510.75;5072260;28;20294;-61
2023/06/23 07:59:47;;;;;;;15.27;11.25;;;;;;;23.91;100.00;65511.84;5090429;28;20204;-59
2023/06/23 08:02:13;;;;;;;13.75;11.32;;;;;;;23.97;100.00;65517.94;5090425;28;20248;-60
2023/06/23 08:04:38;;;;;;;12.63;10.13;;;;;;;24.05;100.00;65524.81;5072055;28;20238;-56
2023/06/23 08:07:04;;;;;;;17.60;10.88;;;;;;;24.23;97.80;65546.78;5090682;28;20235;-58
2023/06/23 08:09:30;;;;;;;13.15;10.07;;;;;;;24.26;96.80;65549.56;5091812;28;20208;-61
2023/06/23 08:11:55;;;;;;;13.52;10.32;;;;;;;24.38;99.32;65560.84;5094255;28;20211;-63
2023/06/23 08:14:20;;;;;;;15.95;11.48;;;;;;;24.39;98.99;65564.53;5093795;28;20302;-58
2023/06/23 08:16:48;;;;;;;13.65;10.30;;;;;;;24.41;94.63;65564.19;5094225;28;20219;-57
2023/06/23 08:19:13;;;;;;;10.55;9.48;;;;;;;24.50;93.44;65576.75;5094008;28;20216;-55
2023/06/23 08:21:39;;;;;;;12.63;10.68;;;;;;;24.52;89.16;65578.97;5093970;28;20341;-62
2023/06/23 08:24:05;;;;;;;12.98;10.13;;;;;;;24.64;94.10;65592.28;5093743;28;20227;-56
2023/06/23 08:26:30;;;;;;;11.57;9.43;;;;;;;24.71;94.48;65600.03;5075669;28;20237;-57
2023/06/23 08:28:55;;;;;;;14.82;10.50;;;;;;;24.84;95.20;65611.34;5093734;28;20220;-58
2023/06/23 08:31:21;;;;;;;15.63;10.85;;;;;;;24.87;88.88;65617.78;5094060;28;20199;-57
2023/06/23 08:33:47;;;;;;;14.40;11.10;;;;;;;25.08;87.74;65637.41;5093537;28;20242;-59
2023/06/23 08:36:12;;;;;;;11.35;10.02;;;;;;;25.15;87.54;65645.19;5093426;28;20733;-61
2023/06/23 08:38:38;;;;;;;11.23;9.90;;;;;;;25.15;89.30;65645.19;5093741;28;20707;-61
2023/06/23 08:41:05;;;;;;;12.27;9.63;;;;;;;25.16;86.68;65648.88;5093717;28;20203;-58
2023/06/23 08:43:34;;;;;;;11.40;9.18;;;;;;;25.25;90.01;65653.69;5093501;28;20701;-59
2023/06/23 08:46:02;;;;;;;16.98;11.98;;;;;;;25.46;91.39;65677.56;5093761;28;20211;-57
2023/06/23 08:48:29;;;;;;;17.23;10.50;;;;;;;25.69;85.23;65705.13;5093262;28;20219;-60
2023/06/23 08:50:59;;;;;;;14.13;11.48;;;;;;;25.81;86.82;65715.88;5093109;28;20219;-56
2023/06/23 08:53:25;;;;;;;17.15;11.77;;;;;;;25.74;94.01;65711.25;5093518;28;20219;-57
2023/06/23 08:55:52;;;;;;;12.75;10.25;;;;;;;25.78;94.40;65717.69;5093223;28;20355;-55
2023/06/23 08:58:19;;;;;;;16.08;13.52;;;;;;;25.88;95.34;65728.28;5074994;28;20686;-62
2023/06/23 09:00:45;;;;;;;18.38;12.63;;;;;;;25.95;95.35;65734.00;5093303;28;20276;-60
2023/06/23 09:03:11;;;;;;;17.25;11.15;;;;;;;25.99;92.78;65743.63;5093062;28;20204;-56
2023/06/23 09:05:39;;;;;;;13.95;12.48;;;;;;;26.22;93.80;65764.00;5093022;28;20204;-61
2023/06/23 09:08:05;;;;;;;20.67;13.18;;;;;;;26.40;92.81;65786.59;5092772;28;20297;-56
2023/06/23 09:10:31;;;;;;;16.08;12.23;;;;;;;26.54;90.51;65799.00;5093119;28;20224;-58
2023/06/23 09:13:23;;;;;;;15.68;12.10;;;;;;;26.50;88.98;65795.09;5092899;28;20609;-62
2023/06/23 09:15:49;;;;;;;16.33;12.60;;;;;;;26.66;86.46;65812.34;5093214;28;20274;-62
2023/06/23 09:18:17;;;;;;;16.05;11.23;;;;;;;26.75;84.21;65819.19;5092662;28;20357;-61
2023/06/23 09:20:47;;;;;;;16.05;12.02;;;;;;;26.94;86.34;65845.50;5092572;28;20200;-57
2023/06/23 09:23:20;;;;;;;14.85;12.77;;;;;;;26.98;85.25;65850.50;5092746;28;20707;-56
2023/06/23 09:25:50;;;;;;;18.60;12.55;;;;;;;27.03;83.37;65852.91;5092722;28;20245;-56
2023/06/23 09:28:31;;;;;;;15.63;10.02;;;;;;;27.13;74.50;65866.63;5092456;28;20203;-56
2023/06/23 09:31:11;;;;;;;14.50;10.15;;;;;;;27.19;72.28;65871.25;5092481;28;20227;-56
2023/06/23 09:33:49;;;;;;;13.43;10.73;;;;;;;27.35;79.79;65889.06;5092274;28;20287;-57
2023/06/23 09:36:15;;;;;;;15.70;10.48;;;;;;;27.49;73.58;65903.53;5092434;28;20313;-61
2023/06/23 09:38:40;;;;;;;16.58;11.35;;;;;;;27.60;77.82;65913.72;5092373;28;20253;-61
2023/06/23 09:41:08;;;;;;;14.20;11.13;;;;;;;27.63;79.97;65919.09;5092729;28;20200;-58
2023/06/23 09:43:39;;;;;;;17.23;11.10;;;;;;;27.77;76.49;65935.22;5092113;28;20212;-61
2023/06/23 09:46:18;;;;;;;16.23;11.10;;;;;;;27.85;74.84;65941.53;5092322;28;20235;-61
2023/06/23 09:48:46;;;;;;;12.85;10.90;;;;;;;27.62;75.50;65917.97;5092258;28;20262;-61
2023/06/23 09:51:12;;;;;;;13.63;10.32;;;;;;;27.91;74.23;65950.22;5092128;28;20200;-61
2023/06/23 09:53:40;;;;;;;20.65;10.77;;;;;;;28.09;74.67;65970.84;5091687;28;20223;-61
2023/06/23 09:56:07;;;;;;;15.75;10.40;;;;;;;28.08;74.67;65971.75;5072783;28;20214;-60
2023/06/23 09:58:39;;;;;;;12.13;8.93;;;;;;;28.17;66.53;65979.19;5091821;28;20259;-56
2023/06/23 10:01:10;;;;;;;13.30;9.43;;;;;;;28.21;67.05;65986.78;5092335;28;20224;-55
2023/06/23 10:03:46;;;;;;;11.02;9.45;;;;;;;28.45;71.90;66012.94;5073683;28;20652;-58
2023/06/23 10:06:32;;;;;;;13.52;9.50;;;;;;;28.47;67.49;66015.16;5092249;28;20684;-59
2023/06/23 10:08:59;;;;;;;13.30;9.23;;;;;;;28.84;69.65;66053.22;5092183;28;20204;-56
2023/06/23 10:11:43;;;;;;;11.05;8.05;;;;;;;28.92;61.09;66062.13;5092338;28;20215;-55
2023/06/23 10:14:11;;;;;;;8.52;6.57;;;;;;;28.85;57.04;66054.31;5092052;28;20653;-56
2023/06/23 10:16:41;;;;;;;8.40;6.78;;;;;;;28.91;61.13;66061.56;5091613;28;20200;-57
2023/06/23 10:19:07;;;;;;;12.90;9.45;;;;;;;29.14;63.39;66086.03;5091830;28;20302;-58
2023/06/23 10:21:32;;;;;;;10.43;9.18;;;;;;;29.28;62.30;66101.66;5091670;28;20235;-57
2023/06/23 10:24:02;;;;;;;10.95;9.60;;;;;;;29.30;62.07;66107.03;5091644;28;20665;-60
2023/06/23 10:26:34;;;;;;;9.73;8.38;;;;;;;29.49;63.32;66125.59;5092119;28;20196;-55
2023/06/23 10:29:04;;;;;;;12.23;8.63;;;;;;;29.29;61.13;66102.78;5091611;28;20209;-55
2023/06/23 10:31:31;;;;;;;11.48;9.55;;;;;;;29.22;61.93;66094.97;5091483;28;20245;-57
2023/06/23 10:34:03;;;;;;;11.35;9.30;;;;;;;29.62;65.96;66140.09;5091235;28;20294;-56
2023/06/23 10:36:31;;;;;;;16.33;11.10;;;;;;;29.84;64.85;66164.63;5073639;28;20196;-60
2023/06/23 10:38:59;;;;;;;15.10;10.65;;;;;;;29.97;62.76;66175.94;5091520;28;20301;-61
2023/06/23 10:41:26;;;;;;;15.63;10.98;;;;;;;29.48;59.95;66121.88;5091431;28;20560;-57
2023/06/23 10:43:55;;;;;;;14.85;9.52;;;;;;;29.60;59.34;66137.28;5091493;28;20212;-56
2023/06/23 10:46:22;;;;;;;13.50;9.90;;;;;;;29.60;57.86;66137.28;5091857;28;20253;-60
2023/06/23 10:48:49;;;;;;;12.38;10.00;;;;;;;29.77;58.43;66158.88;5091350;28;20243;-56
2023/06/23 10:51:15;;;;;;;15.65;10.38;;;;;;;30.08;62.61;66188.19;5091554;28;20204;-56
2023/06/23 10:53:55;;;;;;;12.80;9.70;;;;;;;30.40;64.05;66226.47;5091373;28;20211;-56
2023/06/23 10:56:35;;;;;;;12.07;9.38;;;;;;;30.59;58.15;66247.09;5091588;28;20214;-58
2023/06/23 10:59:17;;;;;;;14.15;9.82;;;;;;;30.72;58.03;66263.66;5091271;28;20230;-59
2023/06/23 11:02:01;;;;;;;15.32;8.80;;;;;;;30.57;57.13;66242.84;5091189;28;20688;-59
2023/06/23 11:04:28;;;;;;;11.98;9.10;;;;;;;30.49;55.42;66233.91;5091069;28;20223;-59
2023/06/23 11:07:07;;;;;;;12.02;9.05;;;;;;;30.86;55.86;66271.47;5091014;28;20196;-60
2023/06/23 11:09:54;;;;;;;13.25;9.50;;;;;;;30.80;55.83;66270.53;5090956;28;20253;-56
2023/06/23 11:12:45;;;;;;;11.43;8.52;;;;;;;31.00;53.97;66292.28;5091178;28;20216;-56
2023/06/23 11:15:15;;;;;;;17.17;8.77;;;;;;;31.24;55.90;66319.06;5090949;28;20204;-58
2023/06/23 11:17:43;;;;;;;12.13;8.52;;;;;;;31.31;53.06;66326.88;5090946;28;20212;-58
2023/06/23 11:20:11;;;;;;;14.40;7.45;;;;;;;31.26;54.55;66321.84;5090982;28;20203;-58
2023/06/23 11:22:52;;;;;;;11.13;7.40;;;;;;;31.47;53.22;66346.78;5091100;28;20265;-56